Euskara    
Meteorología y climatología de Navarra
Datos de la estación - Meteo Navarra

Estación de Erremendia (Salazar) GN

Altitud 1047 m.


Datos desde el 23/02/2021 hasta el 24/02/2021 en horario solar
Los datos son PROVISIONALES

Anterior Página 1 de 1 Siguiente Descargar: Formato para Excel 2000 o superior   Formato csv   Formato para OpenOffice Calc
Fecha Temperatura Humedad relativa Radiación global Insolación Precipitación Vel. viento 10 m Vel. viento 10 m Dir. viento 10 m
°C % W/m² s l/m² m/s km/h °
23/02/2021 0:00 3.1 97 0.0 0 0.1 3.2 11.5 147
23/02/2021 0:10 3.9 93 0.0 0 0.1 3.8 13.8 145
23/02/2021 0:20 4.1 89 0.0 0 0.2 3.9 13.9 136
23/02/2021 0:30 4.3 85 0.0 0 0.1 5.2 18.6 130
23/02/2021 0:40 4.2 86 0.0 0 0.1 5.1 18.3 145
23/02/2021 0:50 4.1 86 0.0 0 0.1 5.2 18.9 161
23/02/2021 1:00 4.1 85 0.0 0 0.2 4.7 17.1 155
23/02/2021 1:10 4.2 84 0.0 0 0.1 4.7 16.9 156
23/02/2021 1:20 4.3 84 0.0 0 0.2 4.7 17.0 149
23/02/2021 1:30 4.2 84 0.0 0 0.1 4.5 16.1 135
23/02/2021 1:40 4.0 86 0.0 0 0.1 3.8 13.6 146
23/02/2021 1:50 3.9 86 0.0 0 0.0 3.3 11.9 151
23/02/2021 2:00 3.9 86 0.0 0 0.1 3.3 11.7 159
23/02/2021 2:10 3.9 86 0.0 0 0.1 3.4 12.2 157
23/02/2021 2:20 3.7 87 0.0 0 0.0 2.4 8.5 117
23/02/2021 2:30 3.7 87 0.0 0 0.1 2.7 9.8 95
23/02/2021 2:40 3.6 87 0.0 0 0.0 1.7 6.2 125
23/02/2021 2:50 3.6 87 0.0 0 0.0 1.7 6.2 138
23/02/2021 3:00 2.3 90 0.0 0 0.0 0.8 2.8 132
23/02/2021 3:10 2.1 92 0.0 0 0.0 1.4 5.0 137
23/02/2021 3:20 3.2 93 0.0 0 0.0 1.7 6.1 128
23/02/2021 3:30 3.6 90 0.0 0 0.0 1.9 6.8 117
23/02/2021 3:40 3.7 90 0.0 0 0.0 1.3 4.8 116
23/02/2021 3:50 4.0 90 0.0 0 0.0 1.5 5.4 153
23/02/2021 4:00 3.8 90 0.0 0 0.0 0.7 2.4 183
23/02/2021 4:10 4.0 91 0.0 0 0.0 1.7 6.1 186
23/02/2021 4:20 4.1 90 0.0 0 0.0 2.6 9.5 179
23/02/2021 4:30 4.2 89 0.0 0 0.0 2.7 9.7 186
23/02/2021 4:40 4.1 90 0.0 0 0.0 2.6 9.4 174
23/02/2021 4:50 4.1 90 0.0 0 0.0 2.7 9.7 187
23/02/2021 5:00 4.1 91 0.0 0 0.0 2.8 10.2 186
23/02/2021 5:10 4.2 90 0.0 0 0.0 3.5 12.5 190
23/02/2021 5:20 4.1 90 0.0 0 0.0 3.4 12.1 184
23/02/2021 5:30 4.0 92 0.0 0 0.0 3.4 12.4 184
23/02/2021 5:40 3.7 93 0.0 0 0.0 3.0 10.9 207
23/02/2021 5:50 3.7 94 0.0 0 0.0 2.6 9.5 193
23/02/2021 6:00 3.6 94 0.0 0 0.0 2.0 7.2 195
23/02/2021 6:10 3.7 94 0.0 0 0.0 3.0 10.6 192
23/02/2021 6:20 3.9 93 0.0 0 0.0 3.7 13.1 178
23/02/2021 6:30 4.1 93 0.0 0 0.0 4.3 15.3 180
23/02/2021 6:40 4.0 93 0.0 0 0.0 3.5 12.4 186
23/02/2021 6:50 3.9 94 0.0 0 0.0 3.3 11.8 186
23/02/2021 7:00 4.0 95 0.0 0 0.0 3.1 11.2 189
23/02/2021 7:10 4.0 95 0.0 0 0.0 2.4 8.6 180
23/02/2021 7:20 4.2 95 0.0 0 0.0 3.5 12.7 199
23/02/2021 7:30 4.3 94 1.9 0 0.0 3.8 13.5 185
23/02/2021 7:40 4.4 92 9.6 0 0.0 3.5 12.5 179
23/02/2021 7:50 4.8 91 28.9 0 0.0 3.8 13.5 178
23/02/2021 8:00 4.8 90 45.4 0 0.0 3.6 12.9 183
23/02/2021 8:10 4.9 90 55.7 0 0.0 3.4 12.3 177
23/02/2021 8:20 5.1 89 71.0 0 0.0 4.2 15.1 166
23/02/2021 8:30 5.2 88 64.6 0 0.0 3.5 12.7 163
23/02/2021 8:40 5.2 89 66.2 0 0.0 4.6 16.6 146
23/02/2021 8:50 5.4 88 83.0 0 0.0 5.0 18.1 140
23/02/2021 9:00 5.5 87 77.8 0 0.0 4.7 16.9 137
23/02/2021 9:10 5.6 87 95.8 0 0.0 5.1 18.4 141
23/02/2021 9:20 5.8 86 117.0 0 0.0 3.9 13.9 139
23/02/2021 9:30 5.9 84 135.1 0 0.0 5.4 19.6 131
23/02/2021 9:40 6.0 83 158.2 76 0.0 4.2 15.3 151
23/02/2021 9:50 6.2 82 146.3 0 0.0 4.9 17.6 142
23/02/2021 10:00 6.2 83 109.1 0 0.0 5.3 18.9 138
23/02/2021 10:10 6.2 83 127.6 0 0.0 4.7 17.0 134
23/02/2021 10:20 6.3 83 114.6 0 0.0 4.4 15.8 147
23/02/2021 10:30 6.4 83 147.8 22 0.0 4.8 17.4 150
23/02/2021 10:40 6.6 83 206.8 34 0.0 3.7 13.2 132
23/02/2021 10:50 6.8 82 209.1 0 0.0 3.6 12.8 145
23/02/2021 11:00 7.0 80 242.0 32 0.0 3.9 14.0 159
23/02/2021 11:10 7.1 80 243.2 36 0.0 4.3 15.5 157
23/02/2021 11:20 7.1 79 228.5 14 0.0 3.8 13.6 151
23/02/2021 11:30 7.3 78 218.9 0 0.0 3.1 11.3 151
23/02/2021 11:40 7.5 77 242.5 20 0.0 4.0 14.4 152
23/02/2021 11:50 7.7 76 282.9 88 0.0 4.3 15.6 137
23/02/2021 12:00 7.7 76 264.4 50 0.0 4.7 16.8 131
23/02/2021 12:10 7.7 75 250.4 32 0.0 3.7 13.4 153
23/02/2021 12:20 7.8 75 311.2 196 0.0 5.3 19.0 139
23/02/2021 12:30 8.0 74 339.1 236 0.0 5.1 18.4 132
23/02/2021 12:40 8.1 73 385.9 216 0.0 5.4 19.3 135
23/02/2021 12:50 8.4 71 419.5 334 0.0 5.4 19.3 141
23/02/2021 13:00 8.3 72 336.6 262 0.0 6.9 25.0 135
23/02/2021 13:10 8.6 72 513.9 438 0.0 5.0 18.1 136
23/02/2021 13:20 8.9 70 519.2 430 0.0 5.4 19.3 138
23/02/2021 13:30 9.1 69 597.0 516 0.0 4.6 16.4 142
23/02/2021 13:40 9.3 68 558.2 466 0.0 5.4 19.5 148
23/02/2021 13:50 9.3 67 546.9 508 0.0 6.0 21.6 148
23/02/2021 14:00 9.4 67 459.0 430 0.0 5.7 20.4 133
23/02/2021 14:10 9.4 67 444.9 422 0.0 5.1 18.5 148
23/02/2021 14:20 9.6 65 413.8 414 0.0 6.3 22.7 158
23/02/2021 14:30 9.4 65 386.4 400 0.0 5.9 21.2 155
23/02/2021 14:40 9.3 65 313.0 266 0.0 7.0 25.2 147
23/02/2021 14:50 9.3 66 317.5 280 0.0 6.1 21.8 146
23/02/2021 15:00 9.4 65 274.4 250 0.0 6.0 21.5 147
23/02/2021 15:10 9.5 65 360.5 474 0.0 6.3 22.7 140
23/02/2021 15:20 9.7 64 346.2 494 0.0 6.9 24.9 146
23/02/2021 15:30 9.8 63 341.9 546 0.0 6.5 23.5 155
23/02/2021 15:40 9.9 64 312.1 548 0.0 6.5 23.3 153
23/02/2021 15:50 9.9 63 304.6 600 0.0 7.0 25.1 146
23/02/2021 16:00 9.8 64 275.8 600 0.0 7.3 26.1 147
23/02/2021 16:10 9.8 64 247.0 600 0.0 6.7 24.3 140
23/02/2021 16:20 9.8 64 215.4 600 0.0 7.1 25.5 148
23/02/2021 16:30 9.7 63 175.8 596 0.0 6.5 23.3 148
23/02/2021 16:40 9.6 64 146.3 600 0.0 6.6 23.7 148
23/02/2021 16:50 9.5 63 114.9 600 0.0 6.8 24.6 154
23/02/2021 17:00 9.4 63 84.1 600 0.0 7.2 26.0 151
23/02/2021 17:10 9.3 63 60.8 600 0.0 6.5 23.2 150
23/02/2021 17:20 9.2 65 32.9 30 0.0 6.5 23.4 153
23/02/2021 17:30 9.0 66 20.5 0 0.0 5.7 20.4 142
23/02/2021 17:40 8.8 67 0.5 0 0.0 4.8 17.4 153
23/02/2021 17:50 8.9 67 0.0 0 0.0 5.7 20.6 151
23/02/2021 18:00 8.9 67 0.0 0 0.0 5.0 18.0 144
23/02/2021 18:10 8.8 67 0.0 0 0.0 5.0 17.9 150
23/02/2021 18:20 8.8 68 0.0 0 0.0 4.5 16.1 145
23/02/2021 18:30 8.8 68 0.0 0 0.0 4.3 15.5 150
23/02/2021 18:40 8.7 68 0.0 0 0.0 4.2 15.3 139
23/02/2021 18:50 8.7 69 0.0 0 0.0 2.7 9.6 139
23/02/2021 19:00 8.5 71 0.0 0 0.0 3.3 11.7 114
23/02/2021 19:10 8.2 72 0.0 0 0.0 2.6 9.5 110
23/02/2021 19:20 8.2 73 0.0 0 0.0 3.2 11.5 109
23/02/2021 19:30 8.2 72 0.0 0 0.0 3.5 12.4 133
23/02/2021 19:40 8.4 70 0.0 0 0.0 4.3 15.6 136
23/02/2021 19:50 8.6 69 0.0 0 0.0 5.9 21.1 140
23/02/2021 20:00 8.8 68 0.0 0 0.0 5.6 20.0 148
23/02/2021 20:10 8.7 69 0.0 0 0.0 5.2 18.7 148
23/02/2021 20:20 8.6 69 0.0 0 0.0 5.7 20.5 150
23/02/2021 20:30 8.7 69 0.0 0 0.0 5.6 20.2 147
23/02/2021 20:40 8.7 68 0.0 0 0.0 5.3 19.1 150
23/02/2021 20:50 8.7 68 0.0 0 0.0 5.7 20.5 151
23/02/2021 21:00 8.7 68 0.0 0 0.0 6.7 24.1 150
23/02/2021 21:10 8.6 68 0.0 0 0.0 5.1 18.4 141
23/02/2021 21:20 8.7 68 0.0 0 0.0 4.9 17.6 139
23/02/2021 21:30 8.7 67 0.0 0 0.0 4.7 17.0 144
23/02/2021 21:40 8.7 67 0.0 0 0.0 5.4 19.6 144
23/02/2021 21:50 8.6 67 0.0 0 0.0 5.0 17.9 140
23/02/2021 22:00 8.7 67 0.0 0 0.0 5.5 19.6 141
23/02/2021 22:10 8.8 68 0.0 0 0.0 6.1 21.8 138
23/02/2021 22:20 8.7 69 0.0 0 0.0 6.3 22.7 144
23/02/2021 22:30 8.6 71 0.0 0 0.0 6.0 21.7 135
23/02/2021 22:40 8.7 71 0.0 0 0.0 5.6 20.3 124
23/02/2021 22:50 8.5 72 0.0 0 0.0 5.5 19.8 143
23/02/2021 23:00 8.7 72 0.0 0 0.0 6.7 24.2 136
23/02/2021 23:10 8.7 72 0.0 0 0.0 6.4 23.2 133
23/02/2021 23:20 8.6 72 0.0 0 0.0 4.8 17.4 138
23/02/2021 23:30 8.6 73 0.0 0 0.0 4.8 17.1 134
23/02/2021 23:40 8.5 73 0.0 0 0.0 5.5 19.9 146
23/02/2021 23:50 8.4 74 0.0 0 0.0 6.0 21.7 142
Anterior Página 1 de 1 Siguiente

NOTA: Tipo de datos según el color:
   - Valores diarios o 10 minutos correctos
   - Valores diarios calculados a partir de un número de datos 10 minutos menor que 144 y mayor que 120, o de un número de datos semihorarios menor que 48 y mayor que 40 (caso de las estaciones de INTIA Y Ministerio)
   - Valores diez minutos estimados


Contacto        Enlaces        Aviso legal